LOT2006 RKSI-EPWR
Flight info
| Callsign | LOT2006 |
|---|---|
| Flight time | N/A |
| Altitude | 36100 |
| Route | BINIL Y697 AGAVO A591 IKEKA W4 HCH W200 DOVIV W55 PAMRU W34 VYK B215 LEBOM W104 VEXEB/K0907S1160 W47 IDSOT W48 DKO W66 NUKTI B215 FKG A368 SARIN/K0904F380 N161 MADEV/K0900F400 N161 GASBI/N0492F400 N161 LEYLA N644 TETRO M10 SARPI UN37 TBN UM11 CRM UL746 ODERO DCT DINRO DCT ETEPA DCT SAT DCT KENIN DCT RAZEC DCT LENOV L619 LUMVE |
| Aircraft | B788/H-SDE1E2E3FGHIJ2J3J4J5M1RWXY/LB1D1 |
Departure
| Time | 2026-05-04 11:02 |
|---|---|
| Airport | Incheon International Airport (RKSI) |
Arrival
| Time | N/A |
|---|---|
| Airport | Copernicus Wrocław Airport (EPWR) |
| Time | Latitude | Longitude | Altitude | Speed | Heading |
|---|---|---|---|---|---|
| 2026-05-04 10:31 | 37.44953 | 126.44574 | 38 ft | 0 kts | 36° |
| 2026-05-04 10:56 | 37.44896 | 126.44463 | 38 ft | 0 kts | 125° |
| 2026-05-04 10:58 | 37.44894 | 126.44467 | 38 ft | 2 kts | 124° |
| 2026-05-04 10:58 | 37.44879 | 126.44495 | 38 ft | 6 kts | 124° |
| 2026-05-04 10:59 | 37.44846 | 126.44555 | 38 ft | 11 kts | 124° |
| 2026-05-04 10:59 | 37.44778 | 126.44609 | 37 ft | 13 kts | 178° |
| 2026-05-04 10:59 | 37.44674 | 126.44589 | 38 ft | 17 kts | 189° |
| 2026-05-04 10:59 | 37.44564 | 126.44539 | 38 ft | 16 kts | 225° |
| 2026-05-04 11:00 | 37.44497 | 126.44426 | 37 ft | 16 kts | 234° |
| 2026-05-04 11:01 | 37.46456 | 126.42287 | 361 ft | 174 kts | 321° |
| 2026-05-04 11:02 | 37.47424 | 126.41384 | 1271 ft | 175 kts | 319° |
| 2026-05-04 11:02 | 37.48186 | 126.40180 | 2040 ft | 180 kts | 305° |
| 2026-05-04 11:05 | 37.46006 | 126.09103 | 12012 ft | 374 kts | 239° |
| 2026-05-04 11:06 | 37.44577 | 126.06340 | 12840 ft | 381 kts | 239° |
| 2026-05-04 11:06 | 37.43122 | 126.03529 | 13678 ft | 386 kts | 239° |
| 2026-05-04 11:06 | 37.41683 | 126.00665 | 14482 ft | 389 kts | 245° |
| 2026-05-04 11:06 | 37.40845 | 125.97436 | 15318 ft | 388 kts | 262° |
| 2026-05-04 11:08 | 37.40434 | 125.72893 | 20247 ft | 414 kts | 271° |
| 2026-05-04 11:10 | 37.40076 | 125.46885 | 24198 ft | 436 kts | 270° |
| 2026-05-04 11:12 | 37.39639 | 125.19670 | 27381 ft | 453 kts | 270° |
| 2026-05-04 11:12 | 37.39571 | 125.15698 | 27771 ft | 455 kts | 270° |
| 2026-05-04 11:12 | 37.39502 | 125.11714 | 28152 ft | 457 kts | 270° |
| 2026-05-04 11:12 | 37.39431 | 125.07712 | 28548 ft | 459 kts | 269° |
| 2026-05-04 11:13 | 37.39358 | 125.03693 | 28917 ft | 461 kts | 269° |
| 2026-05-04 11:13 | 37.39283 | 124.99647 | 29280 ft | 463 kts | 269° |
| 2026-05-04 11:13 | 37.39207 | 124.95593 | 29627 ft | 465 kts | 269° |
| 2026-05-04 11:13 | 37.39129 | 124.91520 | 29945 ft | 467 kts | 269° |
| 2026-05-04 11:14 | 37.39048 | 124.87425 | 30282 ft | 469 kts | 269° |
| 2026-05-04 11:14 | 37.38968 | 124.83313 | 30579 ft | 471 kts | 269° |
| 2026-05-04 11:14 | 37.38884 | 124.79195 | 30873 ft | 473 kts | 269° |
| 2026-05-04 11:16 | 37.38250 | 124.50063 | 33226 ft | 474 kts | 269° |
| 2026-05-04 11:16 | 37.38058 | 124.45924 | 33604 ft | 474 kts | 262° |
| 2026-05-04 11:16 | 37.37355 | 124.41937 | 33972 ft | 473 kts | 252° |
| 2026-05-04 11:17 | 37.36109 | 124.38111 | 34328 ft | 474 kts | 243° |
| 2026-05-04 11:17 | 37.34421 | 124.34551 | 34636 ft | 475 kts | 240° |
| 2026-05-04 11:19 | 37.22005 | 124.10074 | 36126 ft | 476 kts | 238° |
| 2026-05-04 11:19 | 37.20177 | 124.06613 | 36126 ft | 475 kts | 238° |
| 2026-05-04 11:19 | 37.16529 | 123.99720 | 36130 ft | 474 kts | 238° |
| 2026-05-04 11:20 | 37.12943 | 123.92787 | 36128 ft | 475 kts | 239° |
| 2026-05-04 11:20 | 37.09365 | 123.85813 | 36126 ft | 475 kts | 238° |
| 2026-05-04 11:22 | 36.94978 | 123.58077 | 36127 ft | 474 kts | 238° |
| 2026-05-04 11:23 | 36.91381 | 123.51180 | 36136 ft | 473 kts | 238° |
| 2026-05-04 11:24 | 36.85086 | 123.28657 | 36160 ft | 471 kts | 277° |
| 2026-05-04 11:25 | 36.85781 | 123.24607 | 36162 ft | 472 kts | 285° |
| 2026-05-04 11:25 | 36.87640 | 123.16789 | 36129 ft | 472 kts | 286° |
| 2026-05-04 11:27 | 36.96149 | 122.81317 | 36128 ft | 476 kts | 285° |
| 2026-05-04 11:28 | 36.97717 | 122.74714 | 36129 ft | 476 kts | 285° |
| 2026-05-04 11:28 | 36.99592 | 122.66793 | 36129 ft | 474 kts | 285° |
| 2026-05-04 11:29 | 37.01461 | 122.58875 | 36126 ft | 474 kts | 285° |
| 2026-05-04 11:29 | 37.03322 | 122.50960 | 36127 ft | 474 kts | 285° |
| 2026-05-04 11:31 | 37.14336 | 122.26274 | 36124 ft | 482 kts | 317° |
| 2026-05-04 11:33 | 37.24152 | 122.00433 | 36122 ft | 475 kts | 287° |
| 2026-05-04 11:33 | 37.26202 | 121.92543 | 36119 ft | 476 kts | 287° |
| 2026-05-04 11:34 | 37.28220 | 121.84673 | 36116 ft | 476 kts | 287° |
| 2026-05-04 11:34 | 37.30252 | 121.76765 | 36125 ft | 476 kts | 287° |
| 2026-05-04 11:35 | 37.32277 | 121.68841 | 36106 ft | 476 kts | 287° |
| 2026-05-04 11:35 | 37.34296 | 121.60921 | 36094 ft | 476 kts | 287° |
| 2026-05-04 11:36 | 37.36306 | 121.53012 | 36093 ft | 475 kts | 287° |
| 2026-05-04 11:36 | 37.38309 | 121.45102 | 36093 ft | 475 kts | 287° |
| 2026-05-04 11:37 | 37.40308 | 121.37187 | 36095 ft | 475 kts | 287° |
| 2026-05-04 11:37 | 37.42308 | 121.29244 | 36095 ft | 476 kts | 287° |
| 2026-05-04 11:38 | 37.44301 | 121.21296 | 36096 ft | 477 kts | 287° |
| 2026-05-04 11:38 | 37.46564 | 121.13463 | 36093 ft | 476 kts | 291° |
| 2026-05-04 11:39 | 37.49033 | 121.05721 | 36098 ft | 476 kts | 291° |
| 2026-05-04 11:41 | 37.57612 | 120.78651 | 36100 ft | 476 kts | 291° |
| 2026-05-04 11:41 | 37.60088 | 120.70904 | 36087 ft | 476 kts | 292° |
| 2026-05-04 11:42 | 37.62664 | 120.63207 | 36090 ft | 477 kts | 292° |
| 2026-05-04 11:42 | 37.65187 | 120.55455 | 36090 ft | 478 kts | 294° |
| 2026-05-04 11:43 | 37.68422 | 120.48118 | 36089 ft | 479 kts | 299° |
| 2026-05-04 11:43 | 37.71742 | 120.40828 | 36092 ft | 479 kts | 299° |
| 2026-05-04 11:44 | 37.75073 | 120.33517 | 36092 ft | 480 kts | 299° |
| 2026-05-04 11:44 | 37.78396 | 120.26198 | 36091 ft | 479 kts | 299° |
| 2026-05-04 11:45 | 37.81712 | 120.18878 | 36075 ft | 479 kts | 299° |
| 2026-05-04 11:45 | 37.85011 | 120.11581 | 36074 ft | 477 kts | 299° |
| 2026-05-04 11:46 | 37.88302 | 120.04281 | 36076 ft | 477 kts | 299° |
| 2026-05-04 11:46 | 37.91600 | 119.96959 | 36076 ft | 480 kts | 299° |
| 2026-05-04 11:47 | 37.94900 | 119.89605 | 36076 ft | 480 kts | 299° |
| 2026-05-04 11:47 | 37.98192 | 119.82258 | 36077 ft | 479 kts | 299° |
| 2026-05-04 11:48 | 38.01462 | 119.74941 | 36072 ft | 480 kts | 299° |
| 2026-05-04 11:48 | 38.04746 | 119.67575 | 36072 ft | 480 kts | 299° |
| 2026-05-04 11:49 | 38.08032 | 119.60190 | 36071 ft | 480 kts | 299° |
| 2026-05-04 11:49 | 38.11261 | 119.52763 | 36076 ft | 480 kts | 293° |
| 2026-05-04 11:50 | 38.13823 | 119.44950 | 36059 ft | 480 kts | 292° |
| 2026-05-04 11:50 | 38.16374 | 119.37128 | 36066 ft | 478 kts | 292° |
| 2026-05-04 11:51 | 38.18909 | 119.29312 | 36065 ft | 478 kts | 292° |
| 2026-05-04 11:51 | 38.21443 | 119.21500 | 36047 ft | 478 kts | 292° |
| 2026-05-04 11:52 | 38.23967 | 119.13681 | 36050 ft | 478 kts | 292° |
| 2026-05-04 11:52 | 38.26490 | 119.05858 | 36034 ft | 478 kts | 292° |
| 2026-05-04 11:53 | 38.29005 | 118.98022 | 36032 ft | 478 kts | 292° |
| 2026-05-04 11:53 | 38.31502 | 118.90235 | 36033 ft | 478 kts | 292° |
| 2026-05-04 11:55 | 38.41533 | 118.58810 | 36024 ft | 479 kts | 292° |
| 2026-05-04 11:56 | 38.44037 | 118.50934 | 36014 ft | 478 kts | 292° |
| 2026-05-04 11:56 | 38.46529 | 118.43073 | 36014 ft | 477 kts | 292° |
| 2026-05-04 11:57 | 38.49008 | 118.35229 | 36010 ft | 476 kts | 292° |
| 2026-05-04 11:57 | 38.51477 | 118.27385 | 36006 ft | 477 kts | 292° |
| 2026-05-04 11:58 | 38.53954 | 118.19505 | 36007 ft | 478 kts | 292° |
| 2026-05-04 11:58 | 38.56420 | 118.11627 | 36007 ft | 478 kts | 292° |
| 2026-05-04 11:59 | 38.59098 | 118.03865 | 36020 ft | 477 kts | 302° |
| 2026-05-04 11:59 | 38.63317 | 117.97353 | 35997 ft | 477 kts | 313° |
| 2026-05-04 12:00 | 38.67898 | 117.91240 | 36001 ft | 476 kts | 314° |
| 2026-05-04 12:00 | 38.72476 | 117.85124 | 36001 ft | 476 kts | 313° |
| 2026-05-04 12:01 | 38.77058 | 117.78976 | 35997 ft | 477 kts | 314° |
| 2026-05-04 12:02 | 38.93090 | 117.57404 | 35999 ft | 475 kts | 313° |
| 2026-05-04 12:03 | 38.97640 | 117.51253 | 35994 ft | 474 kts | 313° |
| 2026-05-04 12:03 | 39.02181 | 117.45103 | 35995 ft | 475 kts | 313° |
| 2026-05-04 12:04 | 39.06387 | 117.38625 | 36006 ft | 476 kts | 300° |
| 2026-05-04 12:04 | 39.08748 | 117.30678 | 36013 ft | 480 kts | 281° |
| 2026-05-04 12:05 | 39.09911 | 117.22210 | 36001 ft | 480 kts | 281° |
| 2026-05-04 12:05 | 39.11019 | 117.13754 | 35985 ft | 479 kts | 281° |
| 2026-05-04 12:06 | 39.12149 | 117.05310 | 35985 ft | 479 kts | 281° |
| 2026-05-04 12:06 | 39.13334 | 116.96868 | 35995 ft | 478 kts | 283° |
| 2026-05-04 12:07 | 39.14633 | 116.88456 | 35983 ft | 479 kts | 282° |
| 2026-05-04 12:07 | 39.15959 | 116.80035 | 35975 ft | 480 kts | 283° |
| 2026-05-04 12:08 | 39.17268 | 116.71611 | 35975 ft | 478 kts | 282° |
| 2026-05-04 12:08 | 39.18567 | 116.63220 | 35972 ft | 477 kts | 282° |
| 2026-05-04 12:09 | 39.18749 | 116.54651 | 35980 ft | 485 kts | 261° |
| 2026-05-04 12:09 | 39.17008 | 116.46239 | 35966 ft | 486 kts | 255° |
| 2026-05-04 12:10 | 39.15381 | 116.39307 | 35968 ft | 487 kts | 255° |
| 2026-05-04 12:10 | 39.13457 | 116.30953 | 35968 ft | 486 kts | 255° |
| 2026-05-04 12:11 | 39.11516 | 116.22614 | 35969 ft | 486 kts | 255° |
| 2026-05-04 12:11 | 39.09574 | 116.14284 | 35971 ft | 485 kts | 255° |
| 2026-05-04 12:12 | 39.07626 | 116.05964 | 35969 ft | 486 kts | 255° |
| 2026-05-04 12:12 | 39.05669 | 115.97632 | 35971 ft | 486 kts | 255° |
| 2026-05-04 12:14 | 38.97780 | 115.64345 | 35968 ft | 486 kts | 255° |
| 2026-05-04 12:15 | 38.95797 | 115.56053 | 35969 ft | 486 kts | 254° |
| 2026-05-04 12:15 | 38.93539 | 115.47874 | 35978 ft | 487 kts | 247° |
| 2026-05-04 12:16 | 38.90768 | 115.39929 | 35968 ft | 487 kts | 248° |
| 2026-05-04 12:16 | 38.87983 | 115.32006 | 35970 ft | 487 kts | 247° |
| 2026-05-04 12:17 | 38.85216 | 115.24132 | 35970 ft | 487 kts | 247° |
| 2026-05-04 12:17 | 38.82422 | 115.16216 | 35967 ft | 487 kts | 247° |
| 2026-05-04 12:18 | 38.79621 | 115.08295 | 35970 ft | 488 kts | 247° |
| 2026-05-04 12:18 | 38.76810 | 115.00367 | 35972 ft | 488 kts | 247° |
| 2026-05-04 12:19 | 38.73996 | 114.92453 | 35969 ft | 488 kts | 247° |
| 2026-05-04 12:19 | 38.71177 | 114.84524 | 35970 ft | 489 kts | 247° |
| 2026-05-04 12:20 | 38.68343 | 114.76590 | 35971 ft | 490 kts | 247° |
| 2026-05-04 12:20 | 38.65513 | 114.68677 | 35970 ft | 489 kts | 247° |
| 2026-05-04 12:21 | 38.62675 | 114.60770 | 35970 ft | 489 kts | 247° |
| 2026-05-04 12:21 | 38.59815 | 114.52881 | 35970 ft | 489 kts | 246° |
| 2026-05-04 12:22 | 38.56951 | 114.44987 | 35971 ft | 489 kts | 247° |
| 2026-05-04 12:22 | 38.54095 | 114.37088 | 35972 ft | 490 kts | 246° |
| 2026-05-04 12:23 | 38.51217 | 114.29184 | 35971 ft | 491 kts | 246° |
| 2026-05-04 12:23 | 38.48342 | 114.21289 | 35966 ft | 489 kts | 246° |
| 2026-05-04 12:24 | 38.45491 | 114.13492 | 35962 ft | 487 kts | 246° |
| 2026-05-04 12:24 | 38.42623 | 114.05659 | 35960 ft | 488 kts | 246° |
| 2026-05-04 12:25 | 38.39742 | 113.97811 | 35961 ft | 489 kts | 246° |
| 2026-05-04 12:25 | 38.36851 | 113.89941 | 35965 ft | 491 kts | 246° |
| 2026-05-04 12:26 | 38.33947 | 113.82064 | 35969 ft | 491 kts | 246° |
| 2026-05-04 12:26 | 38.30997 | 113.74234 | 35967 ft | 490 kts | 246° |
| 2026-05-04 12:27 | 38.28043 | 113.66408 | 35967 ft | 489 kts | 246° |
| 2026-05-04 12:27 | 38.25096 | 113.58610 | 35965 ft | 489 kts | 246° |
| 2026-05-04 12:28 | 38.22144 | 113.50832 | 35964 ft | 488 kts | 246° |
| 2026-05-04 12:28 | 38.19195 | 113.43075 | 35961 ft | 487 kts | 246° |
| 2026-05-04 12:29 | 38.16235 | 113.35310 | 35977 ft | 489 kts | 246° |
| 2026-05-04 12:29 | 38.13337 | 113.27498 | 35980 ft | 489 kts | 246° |
| 2026-05-04 12:30 | 38.10418 | 113.19685 | 35981 ft | 490 kts | 246° |
| 2026-05-04 12:30 | 38.07496 | 113.11880 | 35983 ft | 490 kts | 246° |
| 2026-05-04 12:31 | 38.04568 | 113.04077 | 35983 ft | 490 kts | 246° |
| 2026-05-04 12:31 | 38.01633 | 112.96276 | 35984 ft | 490 kts | 246° |
| 2026-05-04 12:32 | 37.97221 | 112.84587 | 35985 ft | 490 kts | 246° |
| 2026-05-04 12:33 | 37.94295 | 112.76859 | 35984 ft | 489 kts | 246° |
| 2026-05-04 12:33 | 37.91345 | 112.69091 | 35984 ft | 489 kts | 246° |
| 2026-05-04 12:34 | 37.88394 | 112.61334 | 35986 ft | 489 kts | 246° |
| 2026-05-04 12:34 | 37.85251 | 112.53711 | 35998 ft | 489 kts | 244° |
| 2026-05-04 12:35 | 37.82067 | 112.46095 | 35998 ft | 490 kts | 243° |
| 2026-05-04 12:35 | 37.79042 | 112.38400 | 36019 ft | 487 kts | 253° |
| 2026-05-04 12:35 | 37.78225 | 112.34258 | 36011 ft | 485 kts | 264° |
| 2026-05-04 12:36 | 37.78017 | 112.30022 | 36012 ft | 483 kts | 274° |
| 2026-05-04 12:36 | 37.78727 | 112.21592 | 35996 ft | 483 kts | 278° |
| 2026-05-04 12:37 | 37.79562 | 112.13163 | 35986 ft | 483 kts | 278° |
| 2026-05-04 12:37 | 37.80357 | 112.04740 | 35990 ft | 482 kts | 278° |
| 2026-05-04 12:38 | 37.81164 | 111.96325 | 35985 ft | 481 kts | 278° |
| 2026-05-04 12:38 | 37.81955 | 111.87907 | 36004 ft | 482 kts | 278° |
| 2026-05-04 12:39 | 37.82745 | 111.79478 | 36009 ft | 483 kts | 278° |
| 2026-05-04 12:39 | 37.83542 | 111.71032 | 36007 ft | 483 kts | 281° |
| 2026-05-04 12:40 | 37.84468 | 111.62615 | 36017 ft | 484 kts | 278° |
| 2026-05-04 12:40 | 37.85846 | 111.54325 | 36017 ft | 481 kts | 294° |
| 2026-05-04 12:41 | 37.89289 | 111.47152 | 36034 ft | 479 kts | 313° |
| 2026-05-04 12:41 | 37.94332 | 111.41639 | 36010 ft | 479 kts | 322° |
| 2026-05-04 12:42 | 37.99585 | 111.36477 | 36011 ft | 477 kts | 322° |
| 2026-05-04 12:42 | 38.04786 | 111.31337 | 36010 ft | 477 kts | 322° |
| 2026-05-04 12:43 | 38.10013 | 111.26168 | 36006 ft | 476 kts | 322° |
| 2026-05-04 12:43 | 38.15223 | 111.21006 | 36008 ft | 475 kts | 322° |
| 2026-05-04 12:44 | 38.20443 | 111.15823 | 36007 ft | 476 kts | 322° |
| 2026-05-04 12:44 | 38.25662 | 111.10633 | 35994 ft | 477 kts | 322° |
| 2026-05-04 12:45 | 38.30889 | 111.05424 | 35994 ft | 477 kts | 322° |
| 2026-05-04 12:45 | 38.36112 | 111.00209 | 35998 ft | 477 kts | 322° |
| 2026-05-04 12:46 | 38.41340 | 110.94980 | 35998 ft | 477 kts | 322° |
| 2026-05-04 12:46 | 38.46566 | 110.89744 | 36001 ft | 478 kts | 322° |
| 2026-05-04 12:47 | 38.51790 | 110.84500 | 35985 ft | 478 kts | 322° |
| 2026-05-04 12:47 | 38.57003 | 110.79254 | 35981 ft | 477 kts | 322° |
| 2026-05-04 12:48 | 38.62213 | 110.74004 | 35980 ft | 477 kts | 322° |
| 2026-05-04 12:48 | 38.67414 | 110.68751 | 35980 ft | 476 kts | 322° |
| 2026-05-04 12:49 | 38.72617 | 110.63491 | 35980 ft | 476 kts | 322° |
| 2026-05-04 12:49 | 38.77807 | 110.58225 | 35979 ft | 476 kts | 322° |
| 2026-05-04 12:50 | 38.83007 | 110.52948 | 35984 ft | 477 kts | 322° |
| 2026-05-04 12:50 | 38.88210 | 110.47653 | 35977 ft | 477 kts | 322° |
| 2026-05-04 12:51 | 38.93376 | 110.42386 | 35979 ft | 478 kts | 322° |
| 2026-05-04 12:51 | 38.98591 | 110.37093 | 36079 ft | 476 kts | 322° |
| 2026-05-04 12:51 | 39.01179 | 110.34509 | 36688 ft | 469 kts | 322° |
| 2026-05-04 12:52 | 39.03742 | 110.31931 | 37064 ft | 466 kts | 322° |
| 2026-05-04 12:52 | 39.06274 | 110.29362 | 37556 ft | 461 kts | 322° |
| 2026-05-04 12:52 | 39.08794 | 110.26809 | 37846 ft | 460 kts | 322° |
| 2026-05-04 12:52 | 39.11315 | 110.24267 | 38070 ft | 461 kts | 322° |
| 2026-05-04 12:53 | 39.13826 | 110.21701 | 38318 ft | 461 kts | 318° |
| 2026-05-04 12:53 | 39.16039 | 110.18723 | 38582 ft | 460 kts | 308° |
| 2026-05-04 12:53 | 39.17255 | 110.16493 | 38728 ft | 461 kts | 301° |
| 2026-05-04 12:53 | 39.18680 | 110.12796 | 38943 ft | 462 kts | 291° |
| 2026-05-04 12:54 | 39.19564 | 110.08816 | 39172 ft | 463 kts | 281° |
| 2026-05-04 12:54 | 39.19906 | 110.04673 | 39361 ft | 465 kts | 275° |
| 2026-05-04 12:54 | 39.20125 | 110.00505 | 39535 ft | 467 kts | 275° |
| 2026-05-04 12:54 | 39.20323 | 109.96330 | 39757 ft | 467 kts | 275° |
| 2026-05-04 12:55 | 39.20510 | 109.92135 | 39868 ft | 470 kts | 275° |
| 2026-05-04 12:55 | 39.20908 | 109.83685 | 39863 ft | 472 kts | 275° |
| 2026-05-04 12:56 | 39.21292 | 109.75269 | 39856 ft | 468 kts | 275° |
| 2026-05-04 12:56 | 39.21672 | 109.66900 | 39852 ft | 467 kts | 275° |
| 2026-05-04 12:57 | 39.22045 | 109.58533 | 39854 ft | 468 kts | 275° |
| 2026-05-04 12:57 | 39.22410 | 109.50122 | 39858 ft | 469 kts | 275° |
| 2026-05-04 12:58 | 39.22741 | 109.41714 | 39858 ft | 469 kts | 274° |
| 2026-05-04 12:58 | 39.23057 | 109.33308 | 39858 ft | 469 kts | 274° |
| 2026-05-04 12:59 | 39.23376 | 109.24906 | 39859 ft | 469 kts | 274° |
| 2026-05-04 12:59 | 39.23680 | 109.16542 | 39861 ft | 470 kts | 274° |
| 2026-05-04 13:00 | 39.23984 | 109.08114 | 39862 ft | 470 kts | 274° |
| 2026-05-04 13:00 | 39.24283 | 108.99649 | 39859 ft | 469 kts | 274° |
| 2026-05-04 13:01 | 39.24574 | 108.91247 | 39861 ft | 469 kts | 274° |
| 2026-05-04 13:01 | 39.24856 | 108.82901 | 39857 ft | 468 kts | 274° |
| 2026-05-04 13:02 | 39.25137 | 108.74515 | 39857 ft | 468 kts | 274° |
| 2026-05-04 13:02 | 39.25412 | 108.66084 | 39866 ft | 467 kts | 274° |
| 2026-05-04 13:03 | 39.25682 | 108.57693 | 39866 ft | 469 kts | 274° |
| 2026-05-04 13:03 | 39.25943 | 108.49287 | 39870 ft | 470 kts | 274° |
| 2026-05-04 13:04 | 39.26201 | 108.40902 | 39874 ft | 470 kts | 274° |
| 2026-05-04 13:04 | 39.26452 | 108.32467 | 39878 ft | 470 kts | 274° |
| 2026-05-04 13:05 | 39.26697 | 108.24038 | 39879 ft | 470 kts | 274° |
| 2026-05-04 13:05 | 39.27356 | 108.15694 | 39885 ft | 466 kts | 287° |
| 2026-05-04 13:06 | 39.30054 | 108.08162 | 39880 ft | 464 kts | 307° |
| 2026-05-04 13:06 | 39.34559 | 108.02250 | 39876 ft | 464 kts | 319° |
| 2026-05-04 13:07 | 39.39512 | 107.96895 | 39876 ft | 464 kts | 320° |
| 2026-05-04 13:07 | 39.44460 | 107.91545 | 39878 ft | 464 kts | 320° |
| 2026-05-04 13:08 | 39.49402 | 107.86178 | 39880 ft | 463 kts | 320° |
| 2026-05-04 13:08 | 39.54339 | 107.80817 | 39881 ft | 463 kts | 320° |
| 2026-05-04 13:09 | 39.59270 | 107.75447 | 39882 ft | 463 kts | 320° |
| 2026-05-04 13:09 | 39.64195 | 107.70074 | 39882 ft | 462 kts | 320° |
| 2026-05-04 13:10 | 39.69113 | 107.64697 | 39882 ft | 462 kts | 320° |
| 2026-05-04 13:10 | 39.74028 | 107.59316 | 39882 ft | 462 kts | 319° |
| 2026-05-04 13:11 | 39.78947 | 107.53917 | 39885 ft | 464 kts | 320° |
| 2026-05-04 13:11 | 39.83883 | 107.48491 | 39890 ft | 465 kts | 319° |
| 2026-05-04 13:12 | 39.88830 | 107.43042 | 39896 ft | 466 kts | 319° |
| 2026-05-04 13:12 | 39.93776 | 107.37582 | 39899 ft | 466 kts | 319° |
| 2026-05-04 13:13 | 39.98707 | 107.32128 | 39898 ft | 464 kts | 319° |
| 2026-05-04 13:13 | 40.03588 | 107.26722 | 39894 ft | 462 kts | 319° |